createdAt,value
2022-07-29T00:00:59.748Z,4.47
2022-07-29T00:03:26.547Z,4.00
2022-07-29T00:05:54.906Z,4.38
2022-07-29T00:08:21.610Z,4.50
2022-07-29T00:10:48.857Z,4.80
2022-07-29T00:13:15.785Z,4.90
2022-07-29T00:15:42.900Z,4.75
2022-07-29T00:18:09.562Z,4.22
2022-07-29T00:20:36.265Z,4.70
2022-07-29T00:23:02.946Z,4.50
2022-07-29T00:25:29.559Z,4.10
2022-07-29T00:27:57.848Z,4.40
2022-07-29T00:30:24.589Z,4.00
2022-07-29T00:32:51.275Z,4.15
2022-07-29T00:35:36.531Z,4.15
2022-07-29T00:38:03.110Z,4.45
2022-07-29T00:40:29.799Z,3.83
2022-07-29T00:42:56.682Z,4.45
2022-07-29T00:45:23.543Z,4.20
2022-07-29T00:47:50.446Z,4.13
2022-07-29T00:50:17.980Z,4.10
2022-07-29T00:52:44.885Z,3.65
2022-07-29T00:55:13.991Z,4.00
2022-07-29T00:57:42.385Z,4.00
2022-07-29T01:00:13.116Z,3.67
2022-07-29T01:02:39.650Z,3.65
2022-07-29T01:05:07.425Z,4.05
2022-07-29T01:07:37.236Z,4.25
2022-07-29T01:10:05.637Z,4.03
2022-07-29T01:12:34.462Z,3.80
2022-07-29T01:15:02.601Z,4.10
2022-07-29T01:17:53.193Z,3.83
2022-07-29T01:21:07.020Z,4.30
2022-07-29T01:23:52.475Z,3.90
2022-07-29T01:26:32.414Z,4.00
2022-07-29T01:29:08.365Z,3.70
2022-07-29T01:32:02.592Z,4.00
2022-07-29T01:35:11.505Z,4.07
2022-07-29T01:38:10.487Z,4.07
2022-07-29T01:40:46.934Z,4.22
2022-07-29T01:43:21.277Z,3.88
2022-07-29T01:45:51.814Z,4.30
2022-07-29T01:48:25.825Z,4.22
2022-07-29T01:51:08.715Z,4.28
2022-07-29T01:53:56.071Z,4.00
2022-07-29T01:56:24.135Z,4.30
2022-07-29T01:58:53.208Z,4.18
2022-07-29T02:01:21.240Z,4.70
2022-07-29T02:03:49.964Z,4.30
2022-07-29T02:06:20.184Z,4.63
2022-07-29T02:08:48.811Z,4.72
2022-07-29T02:11:15.759Z,4.45
2022-07-29T02:13:44.110Z,4.68
2022-07-29T02:16:11.629Z,4.60
2022-07-29T02:18:41.855Z,4.35
2022-07-29T02:21:14.746Z,5.32
2022-07-29T02:23:50.981Z,4.80
2022-07-29T02:26:20.472Z,3.60
2022-07-29T02:28:48.439Z,4.65
2022-07-29T02:31:17.608Z,5.13
2022-07-29T02:33:46.777Z,4.55
2022-07-29T02:36:14.364Z,4.88
2022-07-29T02:38:52.680Z,5.13
2022-07-29T02:41:30.625Z,4.70
2022-07-29T02:44:04.639Z,4.85
2022-07-29T02:46:35.615Z,3.88
2022-07-29T02:49:17.313Z,4.87
2022-07-29T02:51:53.968Z,4.63
2022-07-29T02:54:34.794Z,4.80
2022-07-29T02:57:07.336Z,4.35
2022-07-29T02:59:37.609Z,4.35
2022-07-29T03:02:06.396Z,4.88
2022-07-29T03:04:35.367Z,4.80
2022-07-29T03:07:03.076Z,4.80
2022-07-29T03:09:31.187Z,4.47
2022-07-29T03:11:58.187Z,4.32
2022-07-29T03:14:25.489Z,4.75
2022-07-29T03:16:53.050Z,4.43
2022-07-29T03:19:21.352Z,4.32
2022-07-29T03:21:48.315Z,4.45
2022-07-29T03:24:29.244Z,4.55
2022-07-29T03:26:57.543Z,4.85
2022-07-29T03:29:24.632Z,4.68
2022-07-29T03:31:51.403Z,4.43
2022-07-29T03:34:18.721Z,4.22
2022-07-29T03:36:45.732Z,5.05
2022-07-29T03:39:15.500Z,4.03
2022-07-29T03:41:43.573Z,4.78
2022-07-29T03:44:10.792Z,4.47
2022-07-29T03:46:40.077Z,4.38
2022-07-29T03:49:09.530Z,4.80
2022-07-29T03:51:36.407Z,4.50
2022-07-29T03:54:09.535Z,4.60
2022-07-29T03:56:40.852Z,4.93
2022-07-29T03:59:08.404Z,4.50
2022-07-29T04:01:36.128Z,4.65
2022-07-29T04:04:04.851Z,4.63
2022-07-29T04:06:39.457Z,4.50
2022-07-29T04:09:06.155Z,4.20
2022-07-29T04:12:03.209Z,4.80
2022-07-29T04:14:25.841Z,4.25
2022-07-29T04:16:52.589Z,4.57
2022-07-29T04:19:19.224Z,5.07
2022-07-29T04:21:46.272Z,4.30
2022-07-29T04:24:13.267Z,4.43
2022-07-29T04:26:40.006Z,4.30
2022-07-29T04:29:06.707Z,4.65
2022-07-29T04:31:33.498Z,4.90
2022-07-29T04:34:02.817Z,3.90
2022-07-29T04:36:30.866Z,4.53
2022-07-29T04:38:57.691Z,4.40
2022-07-29T04:41:32.747Z,4.07
2022-07-29T04:44:02.025Z,4.55
2022-07-29T04:46:29.194Z,5.18
2022-07-29T04:48:56.194Z,4.43
2022-07-29T04:51:23.113Z,4.13
2022-07-29T04:53:51.524Z,4.60
2022-07-29T04:56:18.136Z,4.72
2022-07-29T04:58:44.764Z,4.47
2022-07-29T05:01:12.039Z,4.30
2022-07-29T05:03:38.911Z,4.25
2022-07-29T05:06:05.605Z,4.60
2022-07-29T05:08:33.600Z,4.25
2022-07-29T05:11:11.321Z,4.03
2022-07-29T05:13:46.321Z,4.13
2022-07-29T05:16:14.630Z,3.85
2022-07-29T05:18:41.876Z,3.70
2022-07-29T05:21:08.571Z,3.70
2022-07-29T05:23:35.204Z,4.30
2022-07-29T05:26:01.895Z,3.50
2022-07-29T05:28:28.531Z,4.00
2022-07-29T05:30:55.246Z,4.25
2022-07-29T05:33:35.886Z,4.20
2022-07-29T05:36:08.235Z,4.43
2022-07-29T05:38:38.691Z,4.47
2022-07-29T05:41:06.383Z,4.35
2022-07-29T05:43:33.080Z,4.10
2022-07-29T05:46:00.102Z,4.68
2022-07-29T05:48:26.985Z,4.68
2022-07-29T05:50:54.120Z,4.97
2022-07-29T05:53:21.166Z,3.85
2022-07-29T05:55:48.814Z,4.53
2022-07-29T05:58:16.052Z,4.47
2022-07-29T06:00:42.998Z,4.15
2022-07-29T06:03:09.657Z,4.30
2022-07-29T06:05:36.300Z,4.45
2022-07-29T06:08:06.739Z,5.32
2022-07-29T06:10:34.672Z,5.35
2022-07-29T06:13:01.574Z,4.88
2022-07-29T06:15:28.226Z,5.95
2022-07-29T06:17:59.973Z,5.55
2022-07-29T06:20:32.113Z,5.70
2022-07-29T06:22:59.683Z,5.77
2022-07-29T06:25:26.859Z,5.35
2022-07-29T06:27:53.589Z,5.05
2022-07-29T06:30:20.535Z,4.93
2022-07-29T06:32:47.734Z,5.03
2022-07-29T06:38:01.171Z,4.78
2022-07-29T06:40:46.411Z,5.35
2022-07-29T06:43:13.045Z,4.72
2022-07-29T06:45:42.438Z,4.70
2022-07-29T06:48:10.543Z,4.25
2022-07-29T06:50:37.408Z,5.15
2022-07-29T06:53:04.517Z,5.13
2022-07-29T06:55:31.225Z,5.40
2022-07-29T06:57:57.921Z,4.68
2022-07-29T07:00:24.837Z,5.53
2022-07-29T07:02:51.667Z,4.25
2022-07-29T07:05:18.411Z,4.32
2022-07-29T07:07:45.223Z,5.25
2022-07-29T07:10:11.999Z,5.00
2022-07-29T07:12:38.675Z,5.28
2022-07-29T07:15:06.079Z,5.60
2022-07-29T07:17:32.744Z,5.47
2022-07-29T07:19:59.524Z,5.18
2022-07-29T07:22:26.245Z,5.85
2022-07-29T07:24:52.840Z,5.78
2022-07-29T07:27:19.501Z,5.95
2022-07-29T07:29:46.157Z,5.22
2022-07-29T07:32:14.441Z,5.90
2022-07-29T07:34:41.216Z,5.40
2022-07-29T07:37:09.439Z,5.90
2022-07-29T07:39:36.124Z,5.40
2022-07-29T07:42:02.770Z,5.32
2022-07-29T07:44:29.368Z,6.15
2022-07-29T07:46:56.024Z,5.18
2022-07-29T07:49:22.927Z,6.05
2022-07-29T07:51:50.806Z,4.45
2022-07-29T07:54:20.494Z,5.30
2022-07-29T07:56:50.005Z,5.35
2022-07-29T07:59:20.075Z,4.93
2022-07-29T08:01:48.402Z,5.65
2022-07-29T08:04:27.292Z,5.78
2022-07-29T08:06:55.624Z,5.93
2022-07-29T08:09:29.166Z,4.90
2022-07-29T08:11:56.974Z,5.30
2022-07-29T08:14:23.908Z,5.05
2022-07-29T08:16:50.675Z,5.38
2022-07-29T08:19:17.586Z,4.80
2022-07-29T08:21:44.253Z,5.53
2022-07-29T08:24:29.458Z,4.45
2022-07-29T08:26:56.122Z,5.38
2022-07-29T08:29:22.748Z,5.38
2022-07-29T08:31:49.511Z,6.20
2022-07-29T08:34:16.169Z,4.88
2022-07-29T08:36:42.930Z,5.53
2022-07-29T08:39:09.606Z,4.53
2022-07-29T08:41:36.532Z,5.40
2022-07-29T08:44:03.383Z,5.85
2022-07-29T08:46:30.036Z,5.82
2022-07-29T08:48:56.823Z,5.47
2022-07-29T08:51:26.653Z,5.65
2022-07-29T08:53:55.433Z,4.72
2022-07-29T08:56:24.323Z,5.80
2022-07-29T08:58:52.298Z,4.32
2022-07-29T09:01:35.787Z,4.60
2022-07-29T09:04:07.028Z,5.00
2022-07-29T09:06:38.359Z,4.60
2022-07-29T09:09:05.429Z,6.00
2022-07-29T09:11:38.686Z,4.95
2022-07-29T09:14:06.750Z,5.05
2022-07-29T09:16:53.831Z,4.53
2022-07-29T09:19:25.002Z,4.88
2022-07-29T09:21:58.586Z,4.43
2022-07-29T09:24:40.758Z,5.10
2022-07-29T09:27:19.898Z,5.57
2022-07-29T09:29:46.636Z,5.32
2022-07-29T09:32:13.458Z,5.63
2022-07-29T09:34:40.182Z,5.22
2022-07-29T09:37:06.905Z,4.97
2022-07-29T09:39:39.022Z,5.65
2022-07-29T09:42:07.162Z,4.93
2022-07-29T09:44:43.944Z,5.40
2022-07-29T09:47:10.911Z,4.90
2022-07-29T09:49:51.083Z,4.57
2022-07-29T09:52:17.815Z,5.13
2022-07-29T09:54:45.826Z,4.97
2022-07-29T09:57:30.867Z,4.45
2022-07-29T10:00:08.086Z,4.25
2022-07-29T10:02:38.050Z,4.55
2022-07-29T10:05:07.774Z,4.50
2022-07-29T10:07:51.748Z,4.13
2022-07-29T10:10:22.444Z,4.88
2022-07-29T10:13:01.761Z,4.38
2022-07-29T10:15:40.092Z,4.50
2022-07-29T10:18:08.168Z,4.15
2022-07-29T10:20:35.815Z,4.13
2022-07-29T10:23:02.630Z,4.18
2022-07-29T10:25:29.311Z,4.07
2022-07-29T10:27:56.344Z,4.60
2022-07-29T10:30:24.441Z,4.30
2022-07-29T10:33:00.197Z,4.38
2022-07-29T10:35:45.481Z,4.13
2022-07-29T10:38:50.880Z,4.43
2022-07-29T10:41:56.785Z,4.28
2022-07-29T10:44:26.004Z,4.47
2022-07-29T10:46:53.426Z,4.05
2022-07-29T10:49:30.525Z,4.25
2022-07-29T10:52:00.945Z,4.20
2022-07-29T10:54:36.620Z,4.38
2022-07-29T10:57:13.668Z,3.78
2022-07-29T10:59:43.396Z,4.00
2022-07-29T11:02:41.300Z,4.35
2022-07-29T11:05:19.696Z,4.13
2022-07-29T11:08:20.116Z,4.32
2022-07-29T11:11:08.055Z,4.30
2022-07-29T11:13:44.250Z,3.83
2022-07-29T11:16:11.354Z,3.67
2022-07-29T11:19:13.247Z,3.70
2022-07-29T11:24:32.010Z,4.65
2022-07-29T11:27:19.819Z,3.97
2022-07-29T11:30:03.300Z,3.90
2022-07-29T11:32:38.990Z,4.10
2022-07-29T11:35:36.803Z,3.97
2022-07-29T11:38:23.301Z,4.00
2022-07-29T11:41:18.084Z,4.07
2022-07-29T11:43:50.840Z,3.80
2022-07-29T11:46:39.529Z,3.60
2022-07-29T11:49:09.194Z,4.22
2022-07-29T11:51:38.424Z,3.58
2022-07-29T11:54:27.486Z,4.13
2022-07-29T11:56:54.981Z,3.80
2022-07-29T11:59:22.390Z,3.97
2022-07-29T12:02:12.034Z,3.40
2022-07-29T12:04:51.479Z,3.63
2022-07-29T12:07:20.284Z,4.03
2022-07-29T12:09:56.987Z,3.63
2022-07-29T12:12:24.615Z,3.90
2022-07-29T12:14:51.877Z,4.15
2022-07-29T12:17:35.676Z,3.58
2022-07-29T12:20:05.046Z,3.80
2022-07-29T12:22:38.267Z,3.80
2022-07-29T12:25:32.390Z,3.65
2022-07-29T12:28:03.239Z,3.75
2022-07-29T12:30:41.592Z,3.63
2022-07-29T12:33:13.790Z,3.70
2022-07-29T12:35:41.079Z,3.70
2022-07-29T12:38:08.214Z,3.55
2022-07-29T12:40:34.859Z,3.42
2022-07-29T12:43:21.564Z,3.58
2022-07-29T12:45:54.394Z,3.72
2022-07-29T12:48:41.603Z,3.30
2022-07-29T12:51:10.090Z,3.67
2022-07-29T12:53:37.836Z,4.10
2022-07-29T12:56:15.535Z,3.75
2022-07-29T12:58:52.734Z,3.75
2022-07-29T13:01:21.138Z,3.47
2022-07-29T13:03:59.649Z,4.30
2022-07-29T13:06:36.602Z,3.60
2022-07-29T13:09:14.932Z,3.40
2022-07-29T13:11:48.333Z,3.67
2022-07-29T13:14:32.773Z,3.90
2022-07-29T13:17:14.010Z,3.83
2022-07-29T13:19:48.896Z,3.88
2022-07-29T13:22:17.750Z,3.80
2022-07-29T13:24:53.939Z,3.72
2022-07-29T13:27:25.708Z,4.00
2022-07-29T13:29:53.485Z,4.00
2022-07-29T13:32:28.188Z,3.80
2022-07-29T13:35:01.679Z,4.13
2022-07-29T13:37:35.090Z,4.15
2022-07-29T13:40:04.250Z,3.70
2022-07-29T13:42:31.504Z,3.90
2022-07-29T13:44:58.127Z,3.78
2022-07-29T13:47:32.772Z,3.75
2022-07-29T13:50:01.343Z,4.07
2022-07-29T13:52:29.017Z,3.85
2022-07-29T13:54:55.777Z,3.70
2022-07-29T13:57:22.419Z,3.80
2022-07-29T13:59:53.711Z,4.30
2022-07-29T14:02:21.493Z,3.88
2022-07-29T14:04:53.609Z,3.78
2022-07-29T14:07:20.489Z,3.97
2022-07-29T14:09:47.282Z,3.70
2022-07-29T14:12:14.011Z,3.83
2022-07-29T14:14:41.057Z,3.58
2022-07-29T14:17:08.058Z,3.70
2022-07-29T14:19:39.208Z,3.88
2022-07-29T14:22:07.530Z,3.70
2022-07-29T14:24:37.354Z,3.80
2022-07-29T14:27:05.613Z,4.10
2022-07-29T14:29:37.354Z,4.07
2022-07-29T14:32:09.097Z,3.97
2022-07-29T14:34:37.469Z,4.10
2022-07-29T14:37:06.777Z,4.63
2022-07-29T14:39:36.932Z,4.00
2022-07-29T14:42:06.385Z,4.25
2022-07-29T14:44:33.378Z,4.13
2022-07-29T14:47:01.363Z,3.90
2022-07-29T14:49:34.582Z,4.40
2022-07-29T14:52:01.476Z,4.35
2022-07-29T14:54:28.308Z,3.38
2022-07-29T14:56:58.026Z,4.05
2022-07-29T14:59:25.196Z,4.07
2022-07-29T15:01:52.084Z,3.95
2022-07-29T15:04:18.804Z,3.78
2022-07-29T15:06:45.507Z,4.50
2022-07-29T15:09:12.152Z,4.50
2022-07-29T15:11:39.994Z,4.38
2022-07-29T15:14:07.313Z,4.13
2022-07-29T15:16:37.074Z,4.10
2022-07-29T15:19:05.331Z,4.10
2022-07-29T15:21:32.343Z,4.05
2022-07-29T15:23:59.468Z,4.07
2022-07-29T15:26:26.663Z,4.70
2022-07-29T15:28:53.444Z,4.10
2022-07-29T15:31:20.268Z,4.53
2022-07-29T15:33:46.993Z,4.40
2022-07-29T15:36:30.323Z,5.28
2022-07-29T15:39:01.485Z,4.53
2022-07-29T15:41:28.365Z,4.57
2022-07-29T15:43:54.981Z,4.20
2022-07-29T15:46:40.228Z,4.55
2022-07-29T15:49:07.664Z,4.40
2022-07-29T15:51:34.675Z,5.15
2022-07-29T15:54:05.407Z,4.65
2022-07-29T15:56:32.654Z,5.10
2022-07-29T15:59:00.038Z,4.43
2022-07-29T16:01:28.444Z,4.55
2022-07-29T16:03:55.360Z,4.55
2022-07-29T16:06:22.684Z,4.85
2022-07-29T16:08:49.480Z,4.50
2022-07-29T16:11:17.897Z,4.50
2022-07-29T16:13:44.556Z,5.18
2022-07-29T16:16:13.002Z,5.15
2022-07-29T16:18:39.771Z,4.20
2022-07-29T16:21:06.475Z,5.05
2022-07-29T16:23:33.216Z,4.97
2022-07-29T16:26:01.075Z,4.80
2022-07-29T16:28:29.254Z,4.68
2022-07-29T16:30:55.970Z,4.65
2022-07-29T16:33:23.673Z,4.32
2022-07-29T16:35:51.540Z,5.05
2022-07-29T16:38:18.775Z,4.38
2022-07-29T16:40:46.613Z,4.20
2022-07-29T16:43:13.640Z,4.40
2022-07-29T16:45:45.297Z,4.97
2022-07-29T16:48:18.069Z,5.15
2022-07-29T16:50:45.529Z,4.30
2022-07-29T16:53:12.158Z,4.90
2022-07-29T16:55:39.016Z,4.53
2022-07-29T16:58:09.816Z,4.35
2022-07-29T17:03:11.528Z,4.60
2022-07-29T17:05:52.526Z,4.65
2022-07-29T17:08:21.372Z,4.57
2022-07-29T17:10:48.285Z,4.82
2022-07-29T17:13:15.240Z,5.20
2022-07-29T17:15:44.688Z,4.68
2022-07-29T17:18:12.855Z,4.50
2022-07-29T17:20:41.316Z,4.53
2022-07-29T17:23:08.091Z,4.60
2022-07-29T17:25:34.936Z,4.72
2022-07-29T17:28:01.716Z,4.57
2022-07-29T17:30:29.668Z,4.50
2022-07-29T17:32:56.816Z,4.70
2022-07-29T17:35:42.615Z,4.50
2022-07-29T17:38:09.366Z,4.80
2022-07-29T17:40:36.129Z,4.40
2022-07-29T17:43:04.805Z,5.10
2022-07-29T17:45:49.817Z,5.18
2022-07-29T17:48:17.784Z,5.07
2022-07-29T17:50:44.713Z,4.93
2022-07-29T17:53:16.211Z,5.15
2022-07-29T17:55:48.648Z,4.50
2022-07-29T17:58:16.423Z,4.93
2022-07-29T18:00:43.796Z,4.35
2022-07-29T18:03:10.990Z,4.60
2022-07-29T18:05:37.780Z,4.18
2022-07-29T18:08:05.218Z,4.68
2022-07-29T18:10:32.236Z,4.90
2022-07-29T18:12:58.952Z,5.18
2022-07-29T18:15:25.822Z,4.70
2022-07-29T18:17:57.581Z,4.25
2022-07-29T18:20:27.946Z,3.95
2022-07-29T18:22:55.647Z,3.72
2022-07-29T18:25:22.583Z,4.35
2022-07-29T18:27:49.938Z,4.40
2022-07-29T18:30:16.854Z,4.35
2022-07-29T18:32:59.290Z,4.25
2022-07-29T18:35:30.824Z,3.92
2022-07-29T18:38:02.014Z,4.45
2022-07-29T18:40:29.699Z,4.10
2022-07-29T18:42:57.201Z,4.03
2022-07-29T18:45:28.615Z,4.30
2022-07-29T18:50:28.840Z,4.43
2022-07-29T18:52:58.789Z,4.10
2022-07-29T18:55:27.206Z,3.95
2022-07-29T18:57:56.068Z,4.18
2022-07-29T19:00:24.789Z,4.07
2022-07-29T19:02:52.627Z,4.55
2022-07-29T19:05:19.683Z,4.55
2022-07-29T19:07:47.501Z,4.60
2022-07-29T19:10:14.581Z,4.50
2022-07-29T19:12:41.604Z,4.80
2022-07-29T19:15:10.949Z,4.28
2022-07-29T19:17:38.708Z,4.50
2022-07-29T19:20:07.284Z,4.10
2022-07-29T19:22:34.505Z,4.22
2022-07-29T19:25:01.451Z,4.80
2022-07-29T19:27:28.454Z,4.50
2022-07-29T19:29:58.937Z,4.20
2022-07-29T19:32:26.342Z,5.07
2022-07-29T19:35:12.127Z,4.63
2022-07-29T19:37:39.072Z,4.85
2022-07-29T19:40:07.073Z,4.65
2022-07-29T19:42:34.190Z,4.68
2022-07-29T19:45:02.104Z,5.45
2022-07-29T19:47:28.773Z,4.55
2022-07-29T19:49:56.156Z,5.03
2022-07-29T19:52:22.790Z,4.68
2022-07-29T19:54:49.668Z,5.00
2022-07-29T19:57:16.633Z,6.32
2022-07-29T19:59:44.989Z,5.57
2022-07-29T20:02:12.547Z,6.07
2022-07-29T20:04:40.251Z,5.20
2022-07-29T20:07:07.642Z,5.18
2022-07-29T20:09:34.541Z,4.25
2022-07-29T20:12:01.154Z,4.90
2022-07-29T20:14:27.918Z,4.93
2022-07-29T20:16:54.841Z,4.80
2022-07-29T20:19:21.809Z,4.10
2022-07-29T20:21:48.455Z,4.72
2022-07-29T20:24:15.230Z,4.35
2022-07-29T20:26:41.890Z,5.00
2022-07-29T20:29:09.193Z,5.38
2022-07-29T20:31:36.175Z,4.93
2022-07-29T20:34:03.208Z,4.30
2022-07-29T20:36:30.028Z,4.65
2022-07-29T20:38:57.022Z,4.35
2022-07-29T20:41:23.739Z,4.65
2022-07-29T20:43:50.408Z,5.35
2022-07-29T20:46:18.187Z,4.82
2022-07-29T20:48:45.765Z,6.15
2022-07-29T20:51:13.218Z,5.90
2022-07-29T20:53:41.132Z,4.72
2022-07-29T20:56:08.041Z,5.57
2022-07-29T20:58:36.401Z,4.20
2022-07-29T21:01:05.030Z,5.63
2022-07-29T21:03:33.000Z,5.82
2022-07-29T21:06:00.382Z,8.27
2022-07-29T21:08:27.161Z,9.20
2022-07-29T21:10:54.466Z,8.43
2022-07-29T21:13:23.174Z,8.05
2022-07-29T21:15:51.674Z,6.18
2022-07-29T21:18:32.614Z,7.97
2022-07-29T21:21:04.591Z,8.32
2022-07-29T21:23:31.943Z,7.28
2022-07-29T21:25:58.795Z,8.25
2022-07-29T21:28:40.218Z,6.75
2022-07-29T21:31:12.615Z,8.05
2022-07-29T21:33:42.600Z,9.23
2022-07-29T21:36:42.706Z,6.50
2022-07-29T21:38:58.357Z,5.55
2022-07-29T21:41:25.628Z,8.10
2022-07-29T21:43:54.678Z,9.52
2022-07-29T21:46:26.187Z,7.47
2022-07-29T21:48:53.016Z,8.73
2022-07-29T21:51:19.714Z,9.55
2022-07-29T21:53:46.327Z,9.20
2022-07-29T21:56:14.924Z,10.55
2022-07-29T21:58:43.296Z,8.32
2022-07-29T22:01:10.072Z,10.05
2022-07-29T22:03:36.720Z,7.47
2022-07-29T22:06:03.477Z,7.35
2022-07-29T22:08:30.231Z,6.07
2022-07-29T22:10:56.862Z,6.38
2022-07-29T22:13:23.506Z,8.30
2022-07-29T22:15:50.501Z,6.18
2022-07-29T22:18:20.463Z,8.90
2022-07-29T22:20:47.520Z,9.07
2022-07-29T22:23:14.180Z,6.10
2022-07-29T22:25:40.935Z,8.95
2022-07-29T22:28:07.621Z,7.38
2022-07-29T22:30:37.413Z,5.55
2022-07-29T22:33:04.218Z,10.07
2022-07-29T22:35:30.944Z,9.98
2022-07-29T22:38:01.175Z,9.75
2022-07-29T22:40:30.494Z,8.90
2022-07-29T22:42:57.530Z,8.30
2022-07-29T22:45:24.632Z,9.50
2022-07-29T22:47:55.947Z,8.75
2022-07-29T22:50:26.445Z,7.60
2022-07-29T22:52:53.319Z,8.77
2022-07-29T22:55:20.095Z,7.82
2022-07-29T22:57:46.822Z,7.47
2022-07-29T23:00:14.293Z,6.60
2022-07-29T23:02:41.572Z,7.82
2022-07-29T23:05:09.265Z,9.25
2022-07-29T23:07:36.203Z,9.65
2022-07-29T23:10:04.696Z,5.70
2022-07-29T23:12:32.600Z,7.80
2022-07-29T23:14:59.307Z,8.77
2022-07-29T23:17:27.541Z,10.75
2022-07-29T23:19:54.218Z,5.93
2022-07-29T23:22:20.817Z,8.25
2022-07-29T23:24:48.009Z,10.70
2022-07-29T23:27:14.702Z,7.63
2022-07-29T23:29:42.622Z,9.88
2022-07-29T23:32:09.323Z,9.57
2022-07-29T23:34:36.061Z,10.88
2022-07-29T23:37:03.145Z,10.13
2022-07-29T23:39:30.201Z,6.88
2022-07-29T23:41:56.990Z,9.80
2022-07-29T23:44:24.044Z,10.20
2022-07-29T23:46:50.874Z,11.07
2022-07-29T23:49:17.918Z,10.18
2022-07-29T23:51:44.715Z,9.15
2022-07-29T23:54:11.522Z,5.68
2022-07-29T23:56:38.296Z,5.30
2022-07-29T23:59:05.900Z,8.15
